Time;durP1;ratioP1;P1;durP2;ratioP2;P2;SDS_P1;SDS_P2;PMS_P1;PMS_P2;Temp;Humidity;BMP_temperature;BMP_pressure;BME280_temperature;BME280_humidity;BME280_pressure;Samples;Min_cycle;Max_cycle;Signal;HPM_P1;HPM_P2
2023/03/04 00:00:55;;;;;;;;;;;1.90;99.90;;;;;;5070164;28;19924;-68
2023/03/04 00:03:22;;;;;;;;;;;1.90;99.90;;;;;;5068919;28;19925;-67
2023/03/04 00:05:49;;;;;;;;;;;1.90;99.90;;;;;;5070149;28;19924;-67
2023/03/04 00:08:16;;;;;;;;;;;1.90;99.90;;;;;;5070126;28;19939;-68
2023/03/04 00:10:43;;;;;;;;;;;1.90;99.90;;;;;;5070570;28;19928;-67
2023/03/04 00:13:10;;;;;;;;;;;1.90;99.90;;;;;;5070258;28;19947;-67
2023/03/04 00:15:36;;;;;;;;;;;1.90;99.90;;;;;;5067750;28;19933;-68
2023/03/04 00:18:05;;;;;;;;;;;1.90;99.90;;;;;;5069893;28;20386;-67
2023/03/04 00:20:32;;;;;;;;;;;2.00;99.90;;;;;;5070363;28;19925;-68
2023/03/04 00:22:58;;;;;;;;;;;2.00;99.90;;;;;;5066028;28;19924;-67
2023/03/04 00:25:25;;;;;;;;;;;2.10;99.90;;;;;;5070147;28;19931;-67
2023/03/04 00:27:52;;;;;;;;;;;2.10;99.90;;;;;;5070125;28;19925;-67
2023/03/04 00:30:19;;;;;;;;;;;2.10;99.90;;;;;;5070499;28;19924;-68
2023/03/04 00:32:46;;;;;;;;;;;2.20;99.90;;;;;;5072512;28;19928;-67
2023/03/04 00:35:14;;;;;;;;;;;2.20;99.90;;;;;;5063971;28;19924;-67
2023/03/04 00:37:41;;;;;;;;;;;2.20;99.90;;;;;;5070330;28;19932;-67
2023/03/04 00:40:08;;;;;;;;;;;2.20;99.90;;;;;;5070543;28;19924;-68
2023/03/04 00:42:35;;;;;;;;;;;2.20;99.90;;;;;;5067553;28;20332;-68
2023/03/04 00:45:02;;;;;;;;;;;2.20;99.90;;;;;;5069768;28;20379;-67
2023/03/04 00:47:29;;;;;;;;;;;2.20;99.90;;;;;;5065953;28;19928;-67
2023/03/04 00:49:56;;;;;;;;;;;2.20;99.90;;;;;;5068884;28;19929;-67
2023/03/04 00:52:24;;;;;;;;;;;2.30;99.90;;;;;;5069877;28;20260;-67
2023/03/04 00:54:51;;;;;;;;;;;2.30;99.90;;;;;;5070033;28;19925;-67
2023/03/04 00:57:17;;;;;;;;;;;2.30;99.90;;;;;;5072236;28;20383;-67
2023/03/04 00:59:45;;;;;;;;;;;2.30;99.90;;;;;;5073473;28;19928;-67
2023/03/04 01:02:12;;;;;;;;;;;2.30;99.90;;;;;;5073476;28;19931;-66
2023/03/04 01:04:40;;;;;;;;;;;2.30;99.90;;;;;;5073313;28;19924;-67
2023/03/04 01:07:07;;;;;;;;;;;2.30;99.90;;;;;;5073275;28;20322;-67
2023/03/04 01:09:35;;;;;;;;;;;2.30;99.90;;;;;;5073378;28;19936;-67
2023/03/04 01:12:02;;;;;;;;;;;2.30;99.90;;;;;;5073695;28;19924;-67
2023/03/04 01:14:29;;;;;;;;;;;2.30;99.90;;;;;;5073216;28;19947;-67
2023/03/04 01:16:56;;;;;;;;;;;2.30;99.90;;;;;;5073085;28;19999;-70
2023/03/04 01:19:22;;;;;;;;;;;2.20;99.90;;;;;;5073036;28;19924;-67
2023/03/04 01:21:49;;;;;;;;;;;2.30;99.90;;;;;;5076252;28;19924;-67
2023/03/04 01:24:16;;;;;;;;;;;2.30;99.90;;;;;;5075140;28;19931;-67
2023/03/04 01:26:44;;;;;;;;;;;2.30;99.90;;;;;;5075768;28;19925;-67
2023/03/04 01:29:11;;;;;;;;;;;2.30;99.90;;;;;;5066341;28;19989;-67
2023/03/04 01:31:38;;;;;;;;;;;2.30;99.90;;;;;;5071410;28;19928;-67
2023/03/04 01:34:05;;;;;;;;;;;2.30;99.90;;;;;;5072682;28;19928;-67
2023/03/04 01:36:31;;;;;;;;;;;2.30;99.90;;;;;;5072875;28;19925;-67
2023/03/04 01:38:58;;;;;;;;;;;2.30;99.90;;;;;;5072821;28;19925;-67
2023/03/04 01:41:26;;;;;;;;;;;2.30;99.90;;;;;;5072651;28;20024;-68
2023/03/04 01:43:55;;;;;;;;;;;2.30;99.90;;;;;;5072623;28;19988;-67
2023/03/04 01:46:22;;;;;;;;;;;2.30;99.90;;;;;;5073004;28;19925;-68
2023/03/04 01:48:49;;;;;;;;;;;2.30;99.90;;;;;;5072558;28;19925;-67
2023/03/04 01:51:17;;;;;;;;;;;2.40;99.90;;;;;;5072748;28;19932;-66
2023/03/04 01:53:44;;;;;;;;;;;2.30;99.90;;;;;;5072821;28;20345;-67
2023/03/04 01:56:13;;;;;;;;;;;2.30;99.90;;;;;;5072573;28;19933;-67
2023/03/04 01:58:40;;;;;;;;;;;2.30;99.90;;;;;;5072821;28;19924;-67
2023/03/04 02:01:09;;;;;;;;;;;2.30;99.90;;;;;;5072461;28;19974;-68
2023/03/04 02:03:35;;;;;;;;;;;2.40;99.90;;;;;;5072295;28;19924;-68
2023/03/04 02:06:02;;;;;;;;;;;2.40;99.90;;;;;;5072365;28;19924;-67
2023/03/04 02:08:29;;;;;;;;;;;2.40;99.90;;;;;;5075664;28;20380;-66
2023/03/04 02:10:57;;;;;;;;;;;2.50;99.90;;;;;;5072482;28;20441;-68
2023/03/04 02:13:24;;;;;;;;;;;2.50;99.90;;;;;;5069874;28;19925;-66
2023/03/04 02:15:51;;;;;;;;;;;2.50;99.90;;;;;;5072475;28;19925;-68
2023/03/04 02:18:21;;;;;;;;;;;2.50;99.90;;;;;;5072116;28;19924;-68
2023/03/04 02:20:51;;;;;;;;;;;2.50;99.90;;;;;;5071230;28;19935;-67
2023/03/04 02:23:22;;;;;;;;;;;2.50;99.90;;;;;;5072454;28;19924;-67
2023/03/04 02:25:50;;;;;;;;;;;2.50;99.90;;;;;;5071777;28;20383;-67
2023/03/04 02:28:19;;;;;;;;;;;2.50;99.90;;;;;;5069577;28;19924;-68
2023/03/04 02:30:46;;;;;;;;;;;2.60;99.90;;;;;;5077086;28;19931;-68
2023/03/04 02:33:15;;;;;;;;;;;2.50;99.90;;;;;;5078360;28;19939;-68
2023/03/04 02:35:42;;;;;;;;;;;2.60;99.90;;;;;;5076831;28;20387;-67
2023/03/04 02:38:09;;;;;;;;;;;2.60;99.90;;;;;;5076010;28;19924;-68
2023/03/04 02:40:36;;;;;;;;;;;2.50;99.90;;;;;;5077868;28;19931;-67
2023/03/04 02:43:03;;;;;;;;;;;2.50;99.90;;;;;;5071499;28;19928;-67
2023/03/04 02:45:34;;;;;;;;;;;2.60;99.90;;;;;;5071354;28;19931;-67
2023/03/04 02:48:01;;;;;;;;;;;2.60;99.90;;;;;;5070308;28;19925;-68
2023/03/04 02:50:30;;;;;;;;;;;2.60;99.90;;;;;;5074288;28;19928;-67
2023/03/04 02:52:57;;;;;;;;;;;2.60;99.90;;;;;;5073767;28;19924;-68
2023/03/04 02:55:23;;;;;;;;;;;2.60;99.90;;;;;;5071455;28;19959;-67
2023/03/04 02:57:50;;;;;;;;;;;2.70;99.90;;;;;;5068596;28;19928;-68
2023/03/04 03:00:17;;;;;;;;;;;2.60;99.90;;;;;;5070866;28;19931;-67
2023/03/04 03:02:45;;;;;;;;;;;2.60;99.90;;;;;;5074807;28;19931;-67
2023/03/04 03:05:13;;;;;;;;;;;2.70;99.90;;;;;;5071015;28;19931;-67
2023/03/04 03:07:40;;;;;;;;;;;2.70;99.90;;;;;;5071016;28;19928;-67
2023/03/04 03:10:07;;;;;;;;;;;2.70;99.90;;;;;;5069585;28;19924;-68
2023/03/04 03:12:34;;;;;;;;;;;2.70;99.90;;;;;;5071007;28;19925;-68
2023/03/04 03:15:01;;;;;;;;;;;2.70;99.90;;;;;;5070697;28;20018;-67
2023/03/04 03:17:28;;;;;;;;;;;2.70;99.90;;;;;;5071138;28;19924;-68
2023/03/04 03:19:56;;;;;;;;;;;2.70;99.90;;;;;;5071096;28;19926;-68
2023/03/04 03:22:24;;;;;;;;;;;2.70;99.90;;;;;;5066015;28;19924;-67
2023/03/04 03:24:51;;;;;;;;;;;2.70;99.90;;;;;;5070589;28;19925;-68
2023/03/04 03:27:17;;;;;;;;;;;2.70;99.90;;;;;;5063934;28;19934;-67
2023/03/04 03:29:45;;;;;;;;;;;2.70;99.90;;;;;;5068528;28;19977;-68
2023/03/04 03:32:12;;;;;;;;;;;2.70;99.90;;;;;;5074486;28;19925;-68
2023/03/04 03:34:39;;;;;;;;;;;2.70;99.90;;;;;;5070868;28;19935;-67
2023/03/04 03:37:07;;;;;;;;;;;2.70;99.90;;;;;;5070350;28;19962;-67
2023/03/04 03:39:34;;;;;;;;;;;2.70;99.90;;;;;;5070620;28;19925;-67
2023/03/04 03:42:01;;;;;;;;;;;2.70;99.90;;;;;;5068854;28;19925;-68
2023/03/04 03:44:27;;;;;;;;;;;2.70;99.90;;;;;;5070614;28;19952;-68
2023/03/04 03:46:54;;;;;;;;;;;2.80;99.90;;;;;;5066538;28;19928;-69
2023/03/04 03:49:21;;;;;;;;;;;2.80;99.90;;;;;;5068263;28;19924;-68
2023/03/04 03:51:47;;;;;;;;;;;2.80;99.90;;;;;;5078863;28;19928;-68
2023/03/04 03:54:16;;;;;;;;;;;2.80;99.90;;;;;;5068979;28;20362;-67
2023/03/04 03:56:42;;;;;;;;;;;2.80;99.90;;;;;;5069480;28;20276;-67
2023/03/04 03:59:09;;;;;;;;;;;2.80;99.90;;;;;;5070005;28;19924;-67
2023/03/04 04:01:36;;;;;;;;;;;2.80;99.90;;;;;;5069967;28;19971;-68
2023/03/04 04:04:03;;;;;;;;;;;2.80;99.90;;;;;;5070429;28;19932;-67
2023/03/04 04:06:30;;;;;;;;;;;2.80;99.90;;;;;;5070116;28;19932;-68
2023/03/04 04:08:56;;;;;;;;;;;2.80;99.90;;;;;;5070528;28;19978;-68
2023/03/04 04:11:25;;;;;;;;;;;2.80;99.90;;;;;;5069502;28;19925;-68
2023/03/04 04:13:52;;;;;;;;;;;2.80;99.90;;;;;;5069205;28;19953;-67
2023/03/04 04:16:18;;;;;;;;;;;2.80;99.90;;;;;;5066380;28;20308;-68
2023/03/04 04:18:45;;;;;;;;;;;2.80;99.90;;;;;;5069249;28;19928;-67
2023/03/04 04:21:12;;;;;;;;;;;2.80;99.90;;;;;;5069769;28;19931;-67
2023/03/04 04:23:39;;;;;;;;;;;2.80;99.90;;;;;;5070859;28;19935;-66
2023/03/04 04:26:05;;;;;;;;;;;2.80;99.90;;;;;;5068284;28;19925;-68
2023/03/04 04:28:33;;;;;;;;;;;2.90;99.90;;;;;;5068167;28;19924;-68
2023/03/04 04:31:00;;;;;;;;;;;2.80;99.90;;;;;;5068855;28;19929;-68
2023/03/04 04:33:27;;;;;;;;;;;2.80;99.90;;;;;;5072282;28;19928;-67
2023/03/04 04:35:54;;;;;;;;;;;2.80;99.90;;;;;;5070308;28;19981;-68
2023/03/04 04:38:20;;;;;;;;;;;2.90;99.90;;;;;;5073484;28;20389;-68
2023/03/04 04:40:47;;;;;;;;;;;2.90;99.90;;;;;;5079127;28;19928;-68
2023/03/04 04:43:14;;;;;;;;;;;2.90;99.90;;;;;;5075469;28;19928;-67
2023/03/04 04:45:42;;;;;;;;;;;3.00;99.90;;;;;;5073710;28;20342;-68
2023/03/04 04:48:09;;;;;;;;;;;2.90;99.90;;;;;;5072667;28;19931;-68
2023/03/04 04:50:36;;;;;;;;;;;3.00;99.90;;;;;;5073583;28;19925;-67
2023/03/04 04:53:02;;;;;;;;;;;3.00;99.90;;;;;;5073412;28;19933;-67
2023/03/04 04:55:29;;;;;;;;;;;2.90;99.90;;;;;;5073228;28;19924;-68
2023/03/04 04:57:56;;;;;;;;;;;2.90;99.90;;;;;;5073104;28;20355;-68
2023/03/04 05:00:23;;;;;;;;;;;2.90;99.90;;;;;;5073449;28;19924;-68
2023/03/04 05:02:51;;;;;;;;;;;3.00;99.90;;;;;;5076473;28;19924;-68
2023/03/04 05:05:18;;;;;;;;;;;3.00;99.90;;;;;;5074615;28;19928;-68
2023/03/04 05:07:44;;;;;;;;;;;3.00;99.90;;;;;;5070189;28;19925;-67
2023/03/04 05:10:11;;;;;;;;;;;3.00;99.90;;;;;;5084327;28;19924;-68
2023/03/04 05:12:38;;;;;;;;;;;3.00;99.90;;;;;;5073224;28;19978;-68
2023/03/04 05:15:05;;;;;;;;;;;3.00;99.90;;;;;;5073027;28;19924;-67
2023/03/04 05:17:32;;;;;;;;;;;3.00;99.90;;;;;;5067913;28;19932;-65
2023/03/04 05:20:00;;;;;;;;;;;3.00;99.90;;;;;;5073040;28;19924;-67
2023/03/04 05:22:27;;;;;;;;;;;3.10;99.90;;;;;;5073318;28;19924;-68
2023/03/04 05:24:54;;;;;;;;;;;3.10;99.90;;;;;;5069782;28;19925;-67
2023/03/04 05:27:21;;;;;;;;;;;3.10;99.90;;;;;;5072815;28;20395;-68
2023/03/04 05:29:48;;;;;;;;;;;3.10;99.90;;;;;;5074808;28;19932;-68
2023/03/04 05:32:15;;;;;;;;;;;3.10;99.90;;;;;;5073116;28;19925;-67
2023/03/04 05:34:41;;;;;;;;;;;3.10;99.90;;;;;;5073072;28;20409;-68
2023/03/04 05:37:10;;;;;;;;;;;3.10;99.90;;;;;;5072420;28;19932;-67
2023/03/04 05:39:36;;;;;;;;;;;3.10;99.90;;;;;;5073354;28;19924;-67
2023/03/04 05:42:03;;;;;;;;;;;3.10;99.90;;;;;;5072563;28;19925;-67
2023/03/04 05:44:30;;;;;;;;;;;3.10;99.90;;;;;;5068429;28;19978;-67
2023/03/04 05:46:57;;;;;;;;;;;3.10;99.90;;;;;;5071295;28;19933;-68
2023/03/04 05:49:23;;;;;;;;;;;3.10;99.90;;;;;;5072525;28;19924;-67
2023/03/04 05:51:50;;;;;;;;;;;3.20;99.90;;;;;;5072733;28;19929;-68
2023/03/04 05:54:18;;;;;;;;;;;3.20;99.90;;;;;;5072442;28;19924;-68
2023/03/04 05:56:45;;;;;;;;;;;3.20;99.90;;;;;;5072860;28;19933;-68
2023/03/04 05:59:12;;;;;;;;;;;3.30;99.90;;;;;;5072516;28;19974;-67
2023/03/04 06:01:39;;;;;;;;;;;3.30;99.90;;;;;;5069645;28;19929;-67
2023/03/04 06:04:05;;;;;;;;;;;3.20;99.90;;;;;;5071273;28;19925;-68
2023/03/04 06:06:32;;;;;;;;;;;3.20;99.90;;;;;;5072142;28;19978;-67
2023/03/04 06:09:00;;;;;;;;;;;3.30;99.90;;;;;;5072469;28;19933;-68
2023/03/04 06:11:28;;;;;;;;;;;3.30;99.90;;;;;;5071848;28;19924;-68
2023/03/04 06:13:54;;;;;;;;;;;3.20;99.90;;;;;;5072054;28;19975;-68
2023/03/04 06:16:21;;;;;;;;;;;3.30;99.90;;;;;;5074642;28;19924;-67
2023/03/04 06:18:48;;;;;;;;;;;3.30;99.90;;;;;;5069293;28;19932;-67
2023/03/04 06:21:15;;;;;;;;;;;3.30;99.90;;;;;;5071703;28;19928;-68
2023/03/04 06:23:42;;;;;;;;;;;3.30;99.90;;;;;;5071633;28;19925;-68
2023/03/04 06:26:11;;;;;;;;;;;3.30;99.90;;;;;;5068667;28;19929;-68
2023/03/04 06:28:39;;;;;;;;;;;3.30;99.90;;;;;;5077311;28;19946;-68
2023/03/04 06:31:05;;;;;;;;;;;3.40;99.90;;;;;;5070174;28;19925;-68
2023/03/04 06:33:32;;;;;;;;;;;3.40;99.90;;;;;;5068846;28;20333;-69
2023/03/04 06:35:59;;;;;;;;;;;3.40;99.90;;;;;;5071358;28;20456;-68
2023/03/04 06:38:26;;;;;;;;;;;3.40;99.90;;;;;;5073129;28;19924;-68
2023/03/04 06:40:54;;;;;;;;;;;3.40;99.90;;;;;;5069078;28;19924;-68
2023/03/04 06:43:21;;;;;;;;;;;3.40;99.90;;;;;;5068419;28;19925;-68
2023/03/04 06:45:49;;;;;;;;;;;3.50;99.90;;;;;;5069767;28;19924;-68
2023/03/04 06:48:16;;;;;;;;;;;3.50;99.90;;;;;;5071494;28;19924;-67
2023/03/04 06:50:42;;;;;;;;;;;3.50;99.90;;;;;;5064557;28;19925;-68
2023/03/04 06:53:09;;;;;;;;;;;3.50;99.90;;;;;;5068032;28;19935;-67
2023/03/04 06:55:36;;;;;;;;;;;3.60;99.90;;;;;;5071253;28;19931;-68
2023/03/04 06:58:03;;;;;;;;;;;3.60;99.90;;;;;;5071069;28;19955;-67
2023/03/04 07:00:29;;;;;;;;;;;3.60;99.90;;;;;;5068640;28;19932;-68
2023/03/04 07:02:59;;;;;;;;;;;3.60;99.90;;;;;;5068682;28;19932;-68
2023/03/04 07:05:26;;;;;;;;;;;3.60;99.90;;;;;;5072766;28;19924;-68
2023/03/04 07:07:53;;;;;;;;;;;3.60;99.90;;;;;;5065632;28;19924;-68
2023/03/04 07:10:20;;;;;;;;;;;3.60;99.90;;;;;;5071153;28;19929;-68
2023/03/04 07:12:46;;;;;;;;;;;3.70;99.90;;;;;;5069911;28;19947;-68
2023/03/04 07:15:13;;;;;;;;;;;3.70;99.90;;;;;;5071979;28;19959;-67
2023/03/04 07:17:40;;;;;;;;;;;3.80;99.90;;;;;;5070439;28;19962;-68
2023/03/04 07:20:09;;;;;;;;;;;3.80;99.90;;;;;;5068168;28;20346;-67
2023/03/04 07:22:35;;;;;;;;;;;3.80;99.90;;;;;;5075591;28;19931;-67
2023/03/04 07:25:02;;;;;;;;;;;3.80;99.90;;;;;;5071007;28;19924;-68
2023/03/04 07:27:29;;;;;;;;;;;3.80;99.90;;;;;;5070452;28;19989;-68
2023/03/04 07:29:56;;;;;;;;;;;3.90;99.90;;;;;;5075960;28;19945;-68
2023/03/04 07:32:23;;;;;;;;;;;3.90;99.90;;;;;;5068040;28;19925;-68
2023/03/04 07:34:49;;;;;;;;;;;3.90;99.90;;;;;;5071568;28;19935;-67
2023/03/04 07:37:18;;;;;;;;;;;3.90;99.90;;;;;;5070239;28;19974;-67
2023/03/04 07:39:44;;;;;;;;;;;4.00;99.90;;;;;;5070157;28;19928;-67
2023/03/04 07:42:11;;;;;;;;;;;4.00;99.90;;;;;;5070235;28;19931;-68
2023/03/04 07:44:41;;;;;;;;;;;4.10;99.90;;;;;;5067822;28;19925;-67
2023/03/04 07:47:08;;;;;;;;;;;4.10;99.90;;;;;;5067030;28;19954;-68
2023/03/04 07:49:34;;;;;;;;;;;4.10;99.90;;;;;;5065101;28;20391;-67
2023/03/04 07:52:02;;;;;;;;;;;4.20;99.90;;;;;;5070322;28;19925;-68
2023/03/04 07:54:31;;;;;;;;;;;4.20;99.90;;;;;;5069823;28;19928;-68
2023/03/04 07:56:57;;;;;;;;;;;4.20;99.90;;;;;;5065448;28;19924;-68
2023/03/04 07:59:24;;;;;;;;;;;4.20;99.90;;;;;;5070808;28;19924;-68
2023/03/04 08:01:51;;;;;;;;;;;4.20;99.90;;;;;;5070125;28;19924;-68
2023/03/04 08:04:18;;;;;;;;;;;4.20;99.90;;;;;;5069959;28;19947;-68
2023/03/04 08:06:45;;;;;;;;;;;4.30;99.90;;;;;;5069058;28;19924;-68
2023/03/04 08:09:13;;;;;;;;;;;4.30;99.90;;;;;;5072827;28;19932;-68
2023/03/04 08:11:41;;;;;;;;;;;4.40;99.90;;;;;;5072211;28;19935;-68
2023/03/04 08:14:09;;;;;;;;;;;4.40;99.90;;;;;;5067008;28;19929;-68
2023/03/04 08:16:35;;;;;;;;;;;4.40;99.90;;;;;;5067865;28;19925;-69
2023/03/04 08:19:03;;;;;;;;;;;4.40;99.90;;;;;;5070347;28;19925;-70
2023/03/04 08:21:29;;;;;;;;;;;4.50;99.90;;;;;;5064123;28;19929;-68
2023/03/04 08:23:57;;;;;;;;;;;4.50;99.90;;;;;;5067838;28;19924;-68
2023/03/04 08:26:25;;;;;;;;;;;4.60;99.90;;;;;;5076042;28;19932;-69
2023/03/04 08:28:53;;;;;;;;;;;4.60;99.90;;;;;;5072707;28;19924;-68
2023/03/04 08:31:21;;;;;;;;;;;4.70;99.90;;;;;;5073812;28;19929;-68
2023/03/04 08:33:47;;;;;;;;;;;4.70;99.90;;;;;;5068641;28;19977;-73
2023/03/04 08:36:15;;;;;;;;;;;4.80;99.90;;;;;;5068519;28;19935;-71
2023/03/04 08:38:41;;;;;;;;;;;4.80;99.90;;;;;;5068946;28;20337;-70
2023/03/04 08:41:08;;;;;;;;;;;4.90;99.90;;;;;;5070871;28;19929;-74
2023/03/04 08:43:35;;;;;;;;;;;5.00;99.90;;;;;;5073462;28;19924;-67
2023/03/04 08:46:03;;;;;;;;;;;5.00;99.90;;;;;;5071955;28;19960;-68
2023/03/04 08:48:30;;;;;;;;;;;5.10;99.90;;;;;;5071382;28;20367;-67
2023/03/04 08:50:57;;;;;;;;;;;5.10;99.90;;;;;;5068094;28;19924;-68
2023/03/04 08:53:24;;;;;;;;;;;5.10;99.90;;;;;;5068577;28;19933;-68
2023/03/04 08:55:51;;;;;;;;;;;5.20;99.90;;;;;;5068519;28;19924;-68
2023/03/04 08:58:18;;;;;;;;;;;5.30;99.90;;;;;;5070230;28;19925;-68
2023/03/04 09:00:47;;;;;;;;;;;5.40;99.90;;;;;;5071960;28;19925;-68
2023/03/04 09:03:15;;;;;;;;;;;5.40;99.90;;;;;;5070383;28;19924;-68
2023/03/04 09:05:42;;;;;;;;;;;5.40;99.90;;;;;;5072911;28;19929;-67
2023/03/04 09:08:09;;;;;;;;;;;5.40;99.90;;;;;;5068314;28;19928;-67
2023/03/04 09:10:36;;;;;;;;;;;5.40;99.90;;;;;;5072566;28;19932;-68
2023/03/04 09:13:02;;;;;;;;;;;5.40;99.90;;;;;;5070027;28;20395;-68
2023/03/04 09:15:29;;;;;;;;;;;5.40;99.90;;;;;;5073311;28;20371;-68
2023/03/04 09:17:56;;;;;;;;;;;5.40;99.90;;;;;;5065340;28;19929;-67
2023/03/04 09:20:24;;;;;;;;;;;5.40;99.90;;;;;;5073223;28;19977;-68
2023/03/04 09:22:51;;;;;;;;;;;5.40;99.90;;;;;;5072075;28;19974;-69
2023/03/04 09:25:18;;;;;;;;;;;5.40;99.90;;;;;;5073267;28;19931;-70
2023/03/04 09:27:44;;;;;;;;;;;5.40;99.90;;;;;;5066892;28;19929;-68
2023/03/04 09:30:12;;;;;;;;;;;5.50;99.90;;;;;;5069872;28;19978;-69
2023/03/04 09:32:40;;;;;;;;;;;5.70;99.90;;;;;;5068671;28;19924;-69
2023/03/04 09:35:07;;;;;;;;;;;5.90;99.90;;;;;;5068395;28;19932;-68
2023/03/04 09:37:35;;;;;;;;;;;6.20;99.90;;;;;;5071613;28;19929;-69
2023/03/04 09:40:02;;;;;;;;;;;6.60;99.90;;;;;;5072473;28;19939;-68
2023/03/04 09:42:33;;;;;;;;;;;6.70;99.90;;;;;;5071406;28;19987;-69
2023/03/04 09:45:00;;;;;;;;;;;6.80;99.90;;;;;;5089260;28;19924;-69
2023/03/04 09:47:28;;;;;;;;;;;7.10;99.90;;;;;;5075343;28;19964;-70
2023/03/04 09:49:56;;;;;;;;;;;6.90;99.90;;;;;;5076017;28;19924;-70
2023/03/04 09:52:30;;;;;;;;;;;6.70;99.90;;;;;;5074521;28;19928;-69
2023/03/04 09:55:03;;;;;;;;;;;6.70;99.90;;;;;;5073328;28;19924;-70
2023/03/04 09:57:37;;;;;;;;;;;6.90;99.90;;;;;;5076794;28;19931;-70
2023/03/04 10:00:07;;;;;;;;;;;7.30;99.90;;;;;;5072615;28;19928;-69
2023/03/04 10:02:42;;;;;;;;;;;7.40;99.90;;;;;;5079408;28;19925;-69
2023/03/04 10:05:13;;;;;;;;;;;7.10;99.90;;;;;;5070286;28;19925;-68
2023/03/04 10:07:41;;;;;;;;;;;6.90;99.90;;;;;;5076073;28;19928;-70
2023/03/04 10:10:13;;;;;;;;;;;6.60;99.90;;;;;;5078317;28;19962;-70
2023/03/04 10:12:43;;;;;;;;;;;6.60;99.90;;;;;;5076183;28;19950;-70
2023/03/04 10:15:18;;;;;;;;;;;6.70;99.90;;;;;;5073102;28;20057;-69
2023/03/04 10:17:47;;;;;;;;;;;7.00;99.90;;;;;;5074106;28;19931;-70
2023/03/04 10:20:18;;;;;;;;;;;7.20;99.90;;;;;;5067055;28;19963;-69
2023/03/04 10:22:45;;;;;;;;;;;7.30;99.90;;;;;;5068495;28;19931;-69
2023/03/04 10:25:19;;;;;;;;;;;7.20;99.90;;;;;;5076641;28;20349;-69
2023/03/04 10:27:49;;;;;;;;;;;7.40;99.90;;;;;;5073792;28;19946;-69
2023/03/04 10:30:19;;;;;;;;;;;7.40;99.90;;;;;;5075789;28;19933;-68
2023/03/04 10:32:47;;;;;;;;;;;7.10;99.90;;;;;;5087848;28;20019;-69
2023/03/04 10:35:14;;;;;;;;;;;7.00;99.90;;;;;;5070689;28;19935;-70
2023/03/04 10:37:45;;;;;;;;;;;7.10;99.90;;;;;;5072980;28;19924;-69
2023/03/04 10:40:19;;;;;;;;;;;7.00;99.90;;;;;;5083172;28;19932;-69
2023/03/04 10:42:50;;;;;;;;;;;7.00;99.90;;;;;;5086082;28;20345;-69
2023/03/04 10:45:21;;;;;;;;;;;6.80;99.90;;;;;;5076716;28;20329;-69
2023/03/04 10:47:52;;;;;;;;;;;7.40;99.90;;;;;;5082866;28;19968;-68
2023/03/04 10:50:23;;;;;;;;;;;8.20;99.90;;;;;;5071059;28;19924;-69
2023/03/04 10:52:51;;;;;;;;;;;9.90;99.90;;;;;;5073481;28;19925;-69
2023/03/04 10:55:19;;;;;;;;;;;13.70;99.90;;;;;;5071562;28;19924;-68
2023/03/04 10:57:48;;;;;;;;;;;14.60;99.90;;;;;;5073807;28;19981;-68
2023/03/04 11:00:24;;;;;;;;;;;16.00;99.90;;;;;;5072351;28;20362;-69
2023/03/04 11:02:51;;;;;;;;;;;15.00;99.90;;;;;;5087593;28;19931;-69
2023/03/04 11:05:18;;;;;;;;;;;13.50;99.90;;;;;;5073334;28;19924;-69
2023/03/04 11:07:46;;;;;;;;;;;11.60;99.90;;;;;;5073405;28;19990;-69
2023/03/04 11:10:17;;;;;;;;;;;10.20;99.90;;;;;;5072749;28;20360;-69
2023/03/04 11:12:48;;;;;;;;;;;9.10;99.90;;;;;;5076654;28;19936;-69
2023/03/04 11:15:19;;;;;;;;;;;8.70;99.90;;;;;;5068021;28;19932;-69
2023/03/04 11:17:50;;;;;;;;;;;8.50;99.90;;;;;;5068930;28;20346;-68
2023/03/04 11:20:20;;;;;;;;;;;8.60;99.90;;;;;;5073214;28;20056;-69
2023/03/04 11:22:47;;;;;;;;;;;8.60;99.90;;;;;;5070765;28;20341;-68
2023/03/04 11:25:20;;;;;;;;;;;8.30;99.90;;;;;;5071457;28;20421;-75
2023/03/04 11:27:48;;;;;;;;;;;7.80;99.90;;;;;;5077698;28;19928;-68
2023/03/04 11:30:26;;;;;;;;;;;7.50;99.90;;;;;;5072439;28;19929;-70
2023/03/04 11:32:57;;;;;;;;;;;7.50;99.90;;;;;;5070608;28;19924;-68
2023/03/04 11:35:26;;;;;;;;;;;7.40;99.90;;;;;;5070719;28;20478;-69
2023/03/04 11:37:57;;;;;;;;;;;7.50;99.90;;;;;;5069254;28;19928;-70
2023/03/04 11:40:29;;;;;;;;;;;7.90;99.90;;;;;;5071336;28;19981;-68
2023/03/04 11:42:58;;;;;;;;;;;7.80;99.90;;;;;;5068788;28;19928;-70
2023/03/04 11:45:28;;;;;;;;;;;7.60;99.90;;;;;;5070358;28;19925;-70
2023/03/04 11:48:03;;;;;;;;;;;7.50;99.90;;;;;;5067580;28;19925;-67
2023/03/04 11:50:32;;;;;;;;;;;7.40;99.90;;;;;;5075085;28;19925;-70
2023/03/04 11:53:09;;;;;;;;;;;7.30;99.90;;;;;;5077251;28;19924;-74
2023/03/04 11:55:39;;;;;;;;;;;7.20;99.90;;;;;;5077184;28;19937;-69
2023/03/04 11:58:14;;;;;;;;;;;7.10;99.90;;;;;;5069372;28;19932;-65
2023/03/04 12:00:43;;;;;;;;;;;7.10;99.90;;;;;;5076137;28;19925;-72
2023/03/04 12:03:22;;;;;;;;;;;7.10;99.90;;;;;;5069508;28;19925;-71
2023/03/04 12:05:54;;;;;;;;;;;7.10;99.90;;;;;;5079162;28;19936;-69
2023/03/04 12:08:29;;;;;;;;;;;7.20;99.90;;;;;;5074655;28;20015;-67
2023/03/04 12:11:00;;;;;;;;;;;7.20;99.90;;;;;;5082091;28;19931;-64
2023/03/04 12:13:36;;;;;;;;;;;7.40;99.90;;;;;;5069984;28;19932;-65
2023/03/04 12:16:11;;;;;;;;;;;7.40;99.90;;;;;;5079430;28;19932;-68
2023/03/04 12:18:44;;;;;;;;;;;7.30;99.90;;;;;;5080050;28;19932;-68
2023/03/04 12:21:17;;;;;;;;;;;7.20;99.90;;;;;;5080580;28;19924;-70
2023/03/04 12:23:51;;;;;;;;;;;7.20;99.90;;;;;;5076373;28;19924;-65
2023/03/04 12:26:24;;;;;;;;;;;7.20;99.90;;;;;;5081470;28;19924;-65
2023/03/04 12:28:57;;;;;;;;;;;7.10;99.90;;;;;;5069244;28;19959;-66
2023/03/04 12:31:30;;;;;;;;;;;7.20;99.90;;;;;;5076186;28;20342;-66
2023/03/04 12:34:05;;;;;;;;;;;7.20;99.90;;;;;;5067001;28;19932;-66
2023/03/04 12:36:35;;;;;;;;;;;7.20;99.90;;;;;;5069905;28;20392;-66
2023/03/04 12:39:11;;;;;;;;;;;7.20;99.90;;;;;;5069923;28;19924;-67
2023/03/04 12:41:43;;;;;;;;;;;7.30;99.90;;;;;;5069289;28;20379;-67
2023/03/04 12:44:15;;;;;;;;;;;7.20;99.90;;;;;;5066386;28;19924;-67
2023/03/04 12:46:47;;;;;;;;;;;7.20;99.90;;;;;;5074143;28;19925;-67
2023/03/04 12:49:29;;;;;;;;;;;7.10;99.90;;;;;;5078456;28;19952;-68
2023/03/04 12:52:01;;;;;;;;;;;7.10;99.90;;;;;;5065442;28;19985;-67
2023/03/04 12:54:31;;;;;;;;;;;7.00;99.90;;;;;;5075449;28;19931;-67
2023/03/04 12:56:59;;;;;;;;;;;7.10;99.90;;;;;;5068891;28;19998;-67
2023/03/04 12:59:26;;;;;;;;;;;7.00;99.90;;;;;;5078414;28;19985;-67
2023/03/04 13:01:56;;;;;;;;;;;7.00;99.90;;;;;;5072387;28;19928;-65
2023/03/04 13:04:27;;;;;;;;;;;7.00;99.90;;;;;;5072824;28;20476;-67
2023/03/04 13:07:05;;;;;;;;;;;7.00;99.90;;;;;;5080135;28;19928;-68
2023/03/04 13:09:38;;;;;;;;;;;7.10;99.90;;;;;;5083112;28;19931;-67
2023/03/04 13:12:14;;;;;;;;;;;7.30;99.90;;;;;;5079761;28;19928;-66
2023/03/04 13:14:41;;;;;;;;;;;7.40;99.90;;;;;;5081389;28;19935;-68
2023/03/04 13:17:26;;;;;;;;;;;7.60;99.90;;;;;;5073124;28;19932;-68
2023/03/04 13:19:57;;;;;;;;;;;7.50;99.90;;;;;;5068698;28;19925;-68
2023/03/04 13:22:35;;;;;;;;;;;7.60;99.90;;;;;;5080763;28;19951;-67
2023/03/04 13:25:24;;;;;;;;;;;7.50;99.90;;;;;;5077993;28;19924;-68
2023/03/04 13:28:05;;;;;;;;;;;7.60;99.90;;;;;;5084543;28;19928;-65
2023/03/04 13:30:43;;;;;;;;;;;7.50;99.90;;;;;;5074168;28;19924;-68
2023/03/04 13:33:29;;;;;;;;;;;7.30;99.90;;;;;;5082504;28;19924;-68
2023/03/04 13:36:00;;;;;;;;;;;7.20;99.90;;;;;;5080114;28;19924;-67
2023/03/04 13:38:33;;;;;;;;;;;7.20;99.90;;;;;;5081623;28;20027;-68
2023/03/04 13:41:14;;;;;;;;;;;7.20;99.90;;;;;;5070189;28;20023;-67
2023/03/04 13:43:41;;;;;;;;;;;7.20;99.90;;;;;;5082168;28;19932;-67
2023/03/04 13:46:28;;;;;;;;;;;7.20;99.90;;;;;;5075970;28;19928;-66
2023/03/04 13:49:00;;;;;;;;;;;7.10;99.90;;;;;;5073413;28;19928;-67
2023/03/04 13:51:29;;;;;;;;;;;7.00;99.90;;;;;;5063467;28;19928;-67
2023/03/04 13:53:56;;;;;;;;;;;6.90;99.90;;;;;;5071990;28;19924;-66
2023/03/04 13:56:34;;;;;;;;;;;6.90;99.90;;;;;;5072827;28;19925;-66
2023/03/04 13:59:02;;;;;;;;;;;6.90;99.90;;;;;;5066544;28;19931;-66
2023/03/04 14:01:31;;;;;;;;;;;6.90;99.90;;;;;;5072392;28;19987;-66
2023/03/04 14:03:58;;;;;;;;;;;6.90;99.90;;;;;;5072377;28;20315;-67
2023/03/04 14:06:25;;;;;;;;;;;6.90;99.90;;;;;;5071457;28;19928;-67
2023/03/04 14:08:52;;;;;;;;;;;6.90;99.90;;;;;;5070381;28;19927;-66
2023/03/04 14:11:24;;;;;;;;;;;6.90;99.90;;;;;;5065386;28;19978;-66
2023/03/04 14:13:52;;;;;;;;;;;6.90;99.90;;;;;;5073150;28;19924;-66
2023/03/04 14:16:19;;;;;;;;;;;6.90;99.90;;;;;;5066502;28;19925;-65
2023/03/04 14:18:46;;;;;;;;;;;6.80;99.90;;;;;;5064051;28;20402;-68
2023/03/04 14:21:14;;;;;;;;;;;6.80;99.90;;;;;;5057727;28;19932;-69
2023/03/04 14:23:41;;;;;;;;;;;6.80;99.90;;;;;;5070036;28;19974;-67
2023/03/04 14:26:10;;;;;;;;;;;6.80;99.90;;;;;;5067003;28;19929;-67
2023/03/04 14:28:44;;;;;;;;;;;6.90;99.90;;;;;;5066612;28;19925;-66
2023/03/04 14:31:16;;;;;;;;;;;6.90;99.90;;;;;;5065976;28;19928;-70
2023/03/04 14:33:44;;;;;;;;;;;7.00;99.90;;;;;;5080659;28;19924;-69
2023/03/04 14:36:15;;;;;;;;;;;7.00;99.90;;;;;;5060132;28;20003;-68